createdAt,value
2023-05-17T00:01:31.083Z,56.80
2023-05-17T00:03:59.363Z,57.46
2023-05-17T00:06:27.380Z,58.76
2023-05-17T00:08:55.378Z,58.42
2023-05-17T00:11:23.566Z,58.69
2023-05-17T00:13:51.624Z,57.25
2023-05-17T00:16:19.715Z,57.23
2023-05-17T00:18:47.940Z,56.96
2023-05-17T00:21:16.414Z,57.22
2023-05-17T00:23:44.453Z,56.68
2023-05-17T00:26:13.886Z,56.57
2023-05-17T00:28:42.191Z,56.84
2023-05-17T00:31:10.198Z,56.61
2023-05-17T00:33:38.270Z,58.01
2023-05-17T00:36:06.921Z,57.06
2023-05-17T00:38:36.078Z,55.80
2023-05-17T00:41:04.109Z,54.89
2023-05-17T00:43:32.483Z,54.28
2023-05-17T00:46:00.482Z,55.70
2023-05-17T00:48:30.190Z,55.50
2023-05-17T00:50:59.683Z,56.08
2023-05-17T00:53:28.844Z,55.72
2023-05-17T00:55:57.155Z,55.51
2023-05-17T00:58:25.630Z,56.81
2023-05-17T01:00:54.219Z,57.18
2023-05-17T01:03:22.913Z,56.52
2023-05-17T01:05:52.444Z,55.39
2023-05-17T01:08:20.889Z,54.40
2023-05-17T01:11:12.417Z,51.78
2023-05-17T01:13:55.562Z,49.96
2023-05-17T01:16:31.688Z,49.12
2023-05-17T01:18:59.499Z,47.70
2023-05-17T01:21:51.803Z,44.87
2023-05-17T01:24:19.872Z,42.24
2023-05-17T01:26:51.182Z,41.64
2023-05-17T01:29:25.867Z,39.81
2023-05-17T01:31:55.117Z,38.57
2023-05-17T01:34:29.081Z,38.61
2023-05-17T01:36:58.426Z,36.51
2023-05-17T01:39:27.248Z,36.18
2023-05-17T01:42:24.734Z,35.84
2023-05-17T01:45:23.709Z,34.96
2023-05-17T01:48:28.882Z,35.24
2023-05-17T01:51:00.742Z,35.94
2023-05-17T01:53:48.482Z,35.63
2023-05-17T01:56:22.014Z,33.26
2023-05-17T01:58:53.187Z,34.08
2023-05-17T02:01:21.788Z,34.09
2023-05-17T02:03:50.776Z,33.56
2023-05-17T02:06:18.997Z,34.58
2023-05-17T02:08:47.018Z,33.99
2023-05-17T02:11:15.244Z,34.00
2023-05-17T02:13:43.207Z,34.50
2023-05-17T02:16:12.066Z,33.94
2023-05-17T02:18:40.610Z,35.36
2023-05-17T02:21:09.114Z,35.45
2023-05-17T02:23:38.103Z,35.33
2023-05-17T02:26:06.326Z,34.21
2023-05-17T02:28:35.420Z,34.46
2023-05-17T02:31:04.711Z,35.10
2023-05-17T02:33:33.197Z,34.77
2023-05-17T02:36:01.542Z,34.27
2023-05-17T02:38:30.044Z,34.20
2023-05-17T02:40:58.012Z,34.80
2023-05-17T02:43:26.062Z,34.47
2023-05-17T02:45:54.346Z,33.23
2023-05-17T02:48:22.289Z,33.13
2023-05-17T02:50:50.467Z,33.94
2023-05-17T02:53:18.620Z,33.51
2023-05-17T02:55:47.333Z,32.97
2023-05-17T02:58:15.712Z,32.70
2023-05-17T03:00:46.981Z,33.23
2023-05-17T03:03:16.288Z,33.05
2023-05-17T03:05:44.739Z,32.59
2023-05-17T03:08:12.921Z,32.89
2023-05-17T03:10:41.319Z,33.44
2023-05-17T03:13:10.899Z,33.50
2023-05-17T03:15:40.931Z,33.77
2023-05-17T03:18:09.371Z,34.08
2023-05-17T03:20:38.797Z,34.38
2023-05-17T03:23:07.702Z,34.85
2023-05-17T03:25:41.495Z,35.76
2023-05-17T03:28:10.581Z,35.95
2023-05-17T03:30:38.587Z,36.52
2023-05-17T03:33:06.997Z,38.33
2023-05-17T03:35:35.705Z,39.73
2023-05-17T03:38:03.898Z,39.62
2023-05-17T03:40:32.428Z,40.58
2023-05-17T03:43:01.504Z,46.08
2023-05-17T03:45:30.717Z,49.35
2023-05-17T03:47:59.292Z,50.96
2023-05-17T03:50:28.577Z,52.57
2023-05-17T03:52:57.262Z,53.81
2023-05-17T03:55:25.271Z,52.24
2023-05-17T03:57:53.497Z,52.30
2023-05-17T04:00:22.297Z,54.63
2023-05-17T04:02:51.639Z,53.22
2023-05-17T04:05:20.843Z,51.67
2023-05-17T04:07:49.377Z,50.18
2023-05-17T04:10:17.879Z,52.83
2023-05-17T04:12:46.563Z,53.46
2023-05-17T04:15:14.604Z,51.86
2023-05-17T04:17:43.021Z,52.91
2023-05-17T04:20:12.175Z,55.63
2023-05-17T04:22:40.333Z,57.15
2023-05-17T04:25:10.400Z,56.42
2023-05-17T04:27:38.769Z,54.96
2023-05-17T04:30:08.246Z,56.62
2023-05-17T04:32:36.382Z,56.09
2023-05-17T04:35:05.244Z,54.85
2023-05-17T04:37:33.324Z,55.91
2023-05-17T04:40:08.233Z,54.16
2023-05-17T04:42:37.085Z,54.79
2023-05-17T04:45:06.526Z,57.50
2023-05-17T04:47:34.891Z,59.34
2023-05-17T04:50:04.768Z,61.49
2023-05-17T04:52:33.187Z,62.12
2023-05-17T04:55:01.647Z,60.26
2023-05-17T04:57:29.651Z,58.75
2023-05-17T05:00:14.250Z,58.82
2023-05-17T05:02:43.265Z,57.17
2023-05-17T05:05:12.513Z,53.38
2023-05-17T05:07:41.319Z,54.50
2023-05-17T05:10:10.510Z,55.73
2023-05-17T05:12:38.856Z,57.32
2023-05-17T05:15:07.793Z,57.41
2023-05-17T05:17:37.122Z,57.72
2023-05-17T05:20:06.481Z,58.67
2023-05-17T05:22:34.829Z,60.86
2023-05-17T05:25:05.222Z,63.18
2023-05-17T05:27:35.780Z,64.13
2023-05-17T05:30:04.680Z,64.33
2023-05-17T05:32:33.926Z,64.46
2023-05-17T05:35:02.284Z,63.75
2023-05-17T05:37:30.528Z,63.78
2023-05-17T05:39:59.127Z,63.77
2023-05-17T05:42:27.951Z,64.37
2023-05-17T05:44:56.068Z,64.01
2023-05-17T05:47:24.268Z,63.31
2023-05-17T05:49:52.423Z,63.20
2023-05-17T05:52:21.320Z,61.63
2023-05-17T05:54:49.772Z,61.26
2023-05-17T05:57:17.963Z,60.11
2023-05-17T05:59:46.550Z,60.64
2023-05-17T06:02:14.735Z,61.10
2023-05-17T06:04:45.877Z,61.51
2023-05-17T06:07:15.175Z,60.54
2023-05-17T06:09:43.822Z,59.20
2023-05-17T06:12:11.935Z,59.37
2023-05-17T06:14:40.321Z,59.20
2023-05-17T06:17:08.484Z,58.71
2023-05-17T06:19:36.957Z,58.39
2023-05-17T06:22:05.229Z,58.38
2023-05-17T06:24:33.424Z,55.99
2023-05-17T06:27:01.908Z,52.21
2023-05-17T06:29:30.070Z,50.13
2023-05-17T06:32:00.077Z,52.47
2023-05-17T06:34:28.460Z,53.79
2023-05-17T06:36:56.473Z,52.35
2023-05-17T06:39:24.704Z,50.10
2023-05-17T06:41:52.888Z,52.59
2023-05-17T06:44:21.166Z,47.97
2023-05-17T06:46:49.441Z,46.69
2023-05-17T06:49:17.915Z,45.25
2023-05-17T06:51:46.213Z,47.06
2023-05-17T06:54:14.912Z,46.07
2023-05-17T06:56:43.159Z,44.27
2023-05-17T06:59:11.236Z,45.04
2023-05-17T07:01:40.019Z,47.26
2023-05-17T07:04:08.272Z,47.05
2023-05-17T07:06:36.313Z,44.66
2023-05-17T07:09:04.368Z,46.36
2023-05-17T07:11:33.042Z,43.21
2023-05-17T07:14:01.292Z,43.52
2023-05-17T07:16:29.571Z,43.46
2023-05-17T07:18:57.817Z,43.71
2023-05-17T07:21:26.284Z,44.57
2023-05-17T07:23:54.271Z,43.60
2023-05-17T07:26:22.705Z,43.85
2023-05-17T07:28:50.976Z,43.89
2023-05-17T07:31:19.334Z,43.01
2023-05-17T07:33:47.420Z,42.77
2023-05-17T07:36:15.850Z,45.92
2023-05-17T07:38:44.067Z,43.55
2023-05-17T07:41:13.906Z,44.48
2023-05-17T07:43:41.913Z,46.33
2023-05-17T07:46:09.929Z,47.36
2023-05-17T07:48:38.079Z,47.58
2023-05-17T07:51:06.547Z,48.63
2023-05-17T07:53:34.661Z,48.47
2023-05-17T07:56:02.814Z,46.83
2023-05-17T07:58:30.918Z,45.62
2023-05-17T08:01:00.102Z,44.46
2023-05-17T08:03:28.774Z,44.13
2023-05-17T08:05:56.982Z,44.76
2023-05-17T08:08:25.104Z,45.05
2023-05-17T08:10:53.294Z,45.08
2023-05-17T08:13:21.390Z,45.04
2023-05-17T08:15:51.577Z,44.85
2023-05-17T08:18:19.867Z,44.85
2023-05-17T08:20:49.898Z,45.41
2023-05-17T08:23:18.163Z,45.52
2023-05-17T08:25:46.426Z,45.78
2023-05-17T08:28:14.658Z,45.76
2023-05-17T08:30:42.720Z,46.55
2023-05-17T08:33:10.851Z,46.50
2023-05-17T08:35:39.236Z,46.46
2023-05-17T08:38:07.402Z,45.90
2023-05-17T08:40:35.584Z,46.61
2023-05-17T08:43:03.647Z,46.49
2023-05-17T08:45:32.307Z,46.81
2023-05-17T08:48:01.726Z,46.90
2023-05-17T08:50:31.528Z,46.93
2023-05-17T08:53:01.306Z,47.57
2023-05-17T08:55:33.276Z,48.50
2023-05-17T08:58:02.631Z,49.19
2023-05-17T09:00:33.789Z,48.97
2023-05-17T09:03:02.265Z,48.61
2023-05-17T09:05:30.777Z,48.12
2023-05-17T09:07:59.822Z,49.14
2023-05-17T09:10:28.140Z,49.80
2023-05-17T09:12:56.504Z,50.19
2023-05-17T09:15:27.176Z,51.16
2023-05-17T09:17:56.251Z,52.52
2023-05-17T09:20:26.419Z,52.59
2023-05-17T09:22:55.746Z,52.68
2023-05-17T09:25:24.541Z,51.91
2023-05-17T09:27:53.556Z,52.33
2023-05-17T09:30:33.214Z,52.62
2023-05-17T09:33:07.585Z,53.92
2023-05-17T09:35:37.695Z,56.29
2023-05-17T09:38:08.007Z,55.77
2023-05-17T09:40:40.838Z,53.76
2023-05-17T09:43:09.379Z,53.94
2023-05-17T09:45:38.602Z,54.88
2023-05-17T09:48:16.760Z,55.24
2023-05-17T09:50:46.813Z,55.31
2023-05-17T09:53:32.625Z,55.27
2023-05-17T09:56:03.227Z,56.78
2023-05-17T09:58:37.833Z,57.04
2023-05-17T10:01:08.767Z,57.64
2023-05-17T10:03:38.359Z,59.19
2023-05-17T10:06:13.378Z,60.46
2023-05-17T10:08:46.937Z,61.45
2023-05-17T10:11:15.112Z,62.15
2023-05-17T10:14:08.483Z,62.07
2023-05-17T10:16:38.374Z,61.05
2023-05-17T10:19:07.275Z,60.03
2023-05-17T10:21:36.533Z,60.17
2023-05-17T10:24:06.837Z,57.91
2023-05-17T10:26:36.519Z,57.06
2023-05-17T10:29:06.244Z,57.77
2023-05-17T10:31:35.018Z,59.20
2023-05-17T10:34:07.943Z,59.75
2023-05-17T10:36:36.566Z,59.81
2023-05-17T10:39:08.197Z,60.97
2023-05-17T10:41:44.914Z,60.08
2023-05-17T10:44:16.565Z,61.63
2023-05-17T10:46:58.616Z,61.89
2023-05-17T10:49:30.208Z,62.98
2023-05-17T10:51:59.663Z,62.30
2023-05-17T10:54:39.396Z,62.65
2023-05-17T10:57:09.139Z,62.95
2023-05-17T10:59:57.976Z,64.15
2023-05-17T11:02:28.029Z,64.96
2023-05-17T11:04:56.752Z,65.83
2023-05-17T11:07:28.074Z,66.02
2023-05-17T11:10:10.924Z,65.94
2023-05-17T11:12:43.038Z,65.52
2023-05-17T11:15:13.458Z,64.62
2023-05-17T11:17:56.479Z,62.90
2023-05-17T11:20:28.349Z,62.88
2023-05-17T11:23:00.924Z,63.29
2023-05-17T11:25:36.033Z,63.25
2023-05-17T11:28:29.258Z,62.46
2023-05-17T11:31:01.744Z,60.59
2023-05-17T11:33:46.519Z,61.48
2023-05-17T11:36:19.605Z,63.41
2023-05-17T11:39:11.374Z,64.11
2023-05-17T11:41:45.345Z,64.11
2023-05-17T11:44:14.328Z,63.69
2023-05-17T11:46:43.526Z,63.76
2023-05-17T11:49:17.739Z,63.30
2023-05-17T11:51:51.782Z,62.40
2023-05-17T11:54:23.496Z,61.69
2023-05-17T11:56:54.439Z,61.95
2023-05-17T11:59:23.027Z,62.36
2023-05-17T12:01:51.649Z,62.47
2023-05-17T12:04:27.402Z,61.31
2023-05-17T12:06:56.249Z,62.18
2023-05-17T12:09:26.185Z,63.69
2023-05-17T12:11:54.614Z,62.16
2023-05-17T12:14:22.827Z,62.32
2023-05-17T12:16:54.093Z,62.69
2023-05-17T12:19:25.115Z,62.92
2023-05-17T12:21:53.404Z,63.02
2023-05-17T12:24:21.734Z,62.76
2023-05-17T12:26:49.739Z,61.44
2023-05-17T12:29:22.972Z,61.12
2023-05-17T12:31:53.416Z,62.32
2023-05-17T12:34:22.447Z,62.30
2023-05-17T12:36:52.730Z,61.35
2023-05-17T12:39:23.860Z,62.25
2023-05-17T12:41:52.918Z,62.61
2023-05-17T12:44:21.298Z,62.37
2023-05-17T12:46:56.525Z,62.73
2023-05-17T12:49:24.805Z,62.34
2023-05-17T12:51:52.968Z,62.53
2023-05-17T12:54:23.899Z,62.19
2023-05-17T12:56:52.269Z,62.77
2023-05-17T12:59:29.180Z,62.58
2023-05-17T13:02:00.729Z,64.41
2023-05-17T13:04:34.439Z,66.20
2023-05-17T13:07:04.951Z,66.92
2023-05-17T13:09:45.524Z,66.11
2023-05-17T13:12:27.859Z,66.97
2023-05-17T13:14:56.220Z,68.23
2023-05-17T13:17:35.206Z,68.62
2023-05-17T13:20:05.304Z,69.84
2023-05-17T13:22:34.576Z,70.14
2023-05-17T13:25:03.663Z,69.79
2023-05-17T13:27:31.625Z,69.18
2023-05-17T13:29:59.651Z,67.95
2023-05-17T13:32:28.023Z,65.81
2023-05-17T13:34:56.858Z,64.47
2023-05-17T13:37:25.032Z,64.77
2023-05-17T13:39:55.387Z,64.60
2023-05-17T13:42:23.838Z,64.96
2023-05-17T13:44:52.057Z,62.49
2023-05-17T13:47:20.565Z,62.92
2023-05-17T13:49:49.321Z,62.17
2023-05-17T13:52:18.811Z,61.91
2023-05-17T13:54:47.176Z,60.91
2023-05-17T13:57:15.390Z,59.26
2023-05-17T13:59:45.871Z,59.09
2023-05-17T14:02:14.399Z,60.25
2023-05-17T14:04:42.945Z,60.20
2023-05-17T14:07:11.315Z,59.40
2023-05-17T14:09:40.011Z,58.73
2023-05-17T14:12:08.496Z,58.72
2023-05-17T14:14:36.754Z,59.81
2023-05-17T14:17:04.871Z,60.15
2023-05-17T14:19:33.293Z,60.57
2023-05-17T14:22:01.651Z,60.77
2023-05-17T14:24:29.867Z,61.59
2023-05-17T14:26:58.282Z,62.64
2023-05-17T14:29:26.617Z,62.94
2023-05-17T14:31:54.695Z,63.83
2023-05-17T14:34:22.943Z,63.41
2023-05-17T14:36:51.833Z,63.39
2023-05-17T14:39:19.856Z,62.75
2023-05-17T14:41:47.999Z,63.43
2023-05-17T14:44:16.179Z,64.54
2023-05-17T14:46:44.464Z,64.55
2023-05-17T14:49:12.848Z,64.53
2023-05-17T14:51:41.005Z,64.07
2023-05-17T14:54:09.026Z,63.81
2023-05-17T14:56:36.936Z,64.24
2023-05-17T14:59:05.222Z,64.09
2023-05-17T15:01:33.712Z,64.11
2023-05-17T15:04:01.881Z,63.52
2023-05-17T15:06:30.587Z,62.32
2023-05-17T15:08:59.383Z,61.97
2023-05-17T15:11:27.491Z,62.84
2023-05-17T15:13:56.613Z,63.43
2023-05-17T15:16:24.945Z,63.73
2023-05-17T15:18:54.934Z,65.30
2023-05-17T15:21:25.546Z,65.43
2023-05-17T15:23:53.726Z,65.55
2023-05-17T15:26:22.899Z,65.70
2023-05-17T15:28:51.500Z,66.39
2023-05-17T15:31:19.891Z,66.63
2023-05-17T15:33:48.005Z,66.24
2023-05-17T15:36:16.702Z,67.35
2023-05-17T15:38:45.263Z,68.26
2023-05-17T15:41:16.134Z,66.59
2023-05-17T15:43:44.335Z,66.23
2023-05-17T15:46:12.559Z,65.98
2023-05-17T15:48:40.932Z,67.61
2023-05-17T15:51:09.360Z,69.24
2023-05-17T15:53:37.749Z,70.09
2023-05-17T15:56:06.332Z,70.08
2023-05-17T15:58:34.424Z,69.05
2023-05-17T16:01:04.486Z,68.44
2023-05-17T16:03:33.871Z,68.12
2023-05-17T16:06:04.503Z,67.97
2023-05-17T16:08:32.941Z,68.09
2023-05-17T16:11:02.586Z,66.34
2023-05-17T16:13:31.434Z,66.58
2023-05-17T16:16:00.572Z,67.53
2023-05-17T16:18:31.416Z,66.02
2023-05-17T16:21:04.270Z,66.33
2023-05-17T16:23:32.937Z,68.03
2023-05-17T16:26:00.982Z,70.04
2023-05-17T16:28:29.184Z,70.10
2023-05-17T16:30:57.223Z,70.08
2023-05-17T16:33:25.715Z,70.27
2023-05-17T16:35:53.874Z,70.58
2023-05-17T16:38:21.918Z,71.00
2023-05-17T16:40:50.519Z,71.48
2023-05-17T16:43:18.634Z,71.74
2023-05-17T16:45:46.911Z,71.95
2023-05-17T16:48:15.555Z,72.79
2023-05-17T16:50:44.201Z,71.55
2023-05-17T16:53:12.924Z,72.88
2023-05-17T16:55:42.226Z,73.71
2023-05-17T16:58:10.240Z,73.50
2023-05-17T17:00:38.385Z,74.46
2023-05-17T17:03:09.186Z,74.37
2023-05-17T17:05:37.845Z,74.76
2023-05-17T17:08:06.250Z,74.47
2023-05-17T17:10:36.160Z,74.32
2023-05-17T17:13:05.099Z,74.68
2023-05-17T17:15:33.150Z,74.70
2023-05-17T17:18:01.915Z,75.35
2023-05-17T17:20:30.727Z,75.48
2023-05-17T17:22:58.955Z,76.02
2023-05-17T17:25:29.491Z,76.23
2023-05-17T17:27:57.650Z,76.71
2023-05-17T17:30:25.651Z,77.02
2023-05-17T17:32:53.949Z,76.91
2023-05-17T17:35:22.512Z,76.64
2023-05-17T17:37:50.900Z,77.27
2023-05-17T17:40:19.360Z,77.50
2023-05-17T17:42:47.611Z,77.41
2023-05-17T17:45:15.899Z,77.56
2023-05-17T17:47:44.632Z,77.24
2023-05-17T17:50:14.331Z,76.89
2023-05-17T17:52:42.572Z,76.63
2023-05-17T17:55:11.561Z,77.09
2023-05-17T17:57:39.581Z,76.34
2023-05-17T18:00:12.886Z,76.66
2023-05-17T18:02:41.015Z,76.94
2023-05-17T18:05:10.249Z,77.09
2023-05-17T18:07:38.995Z,77.07
2023-05-17T18:10:07.988Z,77.26
2023-05-17T18:12:36.181Z,77.25
2023-05-17T18:15:05.399Z,77.33
2023-05-17T18:17:33.524Z,77.62
2023-05-17T18:20:02.146Z,77.96
2023-05-17T18:22:30.681Z,78.67
2023-05-17T18:24:59.267Z,78.75
2023-05-17T18:27:27.444Z,78.62
2023-05-17T18:29:55.438Z,78.27
2023-05-17T18:32:23.483Z,78.80
2023-05-17T18:34:52.338Z,79.22
2023-05-17T18:37:21.567Z,79.37
2023-05-17T18:39:49.884Z,79.35
2023-05-17T18:42:17.984Z,79.46
2023-05-17T18:44:46.651Z,79.46
2023-05-17T18:47:14.640Z,79.62
2023-05-17T18:49:46.568Z,80.47
2023-05-17T18:52:15.980Z,80.97
2023-05-17T18:54:44.209Z,81.19
2023-05-17T18:57:14.341Z,81.13
2023-05-17T18:59:42.456Z,81.00
2023-05-17T19:02:10.680Z,80.98
2023-05-17T19:04:38.769Z,80.96
2023-05-17T19:07:07.072Z,80.48
2023-05-17T19:09:35.240Z,80.37
2023-05-17T19:12:03.510Z,80.66
2023-05-17T19:14:32.473Z,80.72
2023-05-17T19:17:00.862Z,80.88
2023-05-17T19:19:31.213Z,81.04
2023-05-17T19:22:00.792Z,80.91
2023-05-17T19:24:29.258Z,80.45
2023-05-17T19:26:58.168Z,79.74
2023-05-17T19:29:27.485Z,79.94
2023-05-17T19:31:55.880Z,79.69
2023-05-17T19:34:24.023Z,79.44
2023-05-17T19:36:52.137Z,79.12
2023-05-17T19:39:20.494Z,79.18
2023-05-17T19:41:48.415Z,78.99
2023-05-17T19:44:16.604Z,78.91
2023-05-17T19:46:45.115Z,79.18
2023-05-17T19:49:13.340Z,79.03
2023-05-17T19:51:41.559Z,79.59
2023-05-17T19:54:09.822Z,79.64
2023-05-17T19:56:38.397Z,79.72
2023-05-17T19:59:06.682Z,79.32
2023-05-17T20:01:34.957Z,79.46
2023-05-17T20:04:03.238Z,79.56
2023-05-17T20:06:32.009Z,79.36
2023-05-17T20:09:00.151Z,79.57
2023-05-17T20:11:28.595Z,79.71
2023-05-17T20:13:56.946Z,79.62
2023-05-17T20:16:28.143Z,79.86
2023-05-17T20:18:58.218Z,80.27
2023-05-17T20:21:26.793Z,80.27
2023-05-17T20:24:01.551Z,80.29
2023-05-17T20:26:36.400Z,80.64
2023-05-17T20:29:07.250Z,80.90
2023-05-17T20:31:36.449Z,81.09
2023-05-17T20:34:05.497Z,81.46
2023-05-17T20:36:33.891Z,81.76
2023-05-17T20:39:01.966Z,81.75
2023-05-17T20:41:30.212Z,82.13
2023-05-17T20:43:58.375Z,82.51
2023-05-17T20:46:30.143Z,82.55
2023-05-17T20:48:58.250Z,82.40
2023-05-17T20:51:27.624Z,82.34
2023-05-17T20:53:55.631Z,82.48
2023-05-17T20:56:23.754Z,82.87
2023-05-17T20:58:51.854Z,82.51
2023-05-17T21:01:19.936Z,82.17
2023-05-17T21:03:48.261Z,81.76
2023-05-17T21:06:16.473Z,82.18
2023-05-17T21:08:44.928Z,82.28
2023-05-17T21:11:18.922Z,81.95
2023-05-17T21:13:50.920Z,81.60
2023-05-17T21:16:19.377Z,81.26
2023-05-17T21:18:47.926Z,81.22
2023-05-17T21:21:16.354Z,81.12
2023-05-17T21:23:44.514Z,80.66
2023-05-17T21:26:13.841Z,80.62
2023-05-17T21:28:42.005Z,80.63
2023-05-17T21:31:10.314Z,80.53
2023-05-17T21:33:38.556Z,80.49
2023-05-17T21:36:07.030Z,80.77
2023-05-17T21:38:36.132Z,80.96
2023-05-17T21:41:04.326Z,80.85
2023-05-17T21:43:32.370Z,80.88
2023-05-17T21:46:00.559Z,80.92
2023-05-17T21:48:28.674Z,81.10
2023-05-17T21:50:56.779Z,80.95
2023-05-17T21:53:24.711Z,81.00
2023-05-17T21:56:02.136Z,81.22
2023-05-17T21:58:32.111Z,81.37
2023-05-17T22:01:00.437Z,81.54
2023-05-17T22:03:28.817Z,81.65
2023-05-17T22:05:57.022Z,82.03
2023-05-17T22:08:25.154Z,82.64
2023-05-17T22:10:55.727Z,83.20
2023-05-17T22:13:26.971Z,83.56
2023-05-17T22:15:57.575Z,83.65
2023-05-17T22:18:27.254Z,84.20
2023-05-17T22:20:59.424Z,84.62
2023-05-17T22:23:28.078Z,84.73
2023-05-17T22:26:00.373Z,85.12
2023-05-17T22:28:28.848Z,85.48
2023-05-17T22:30:57.170Z,85.67
2023-05-17T22:33:25.666Z,85.56
2023-05-17T22:35:54.220Z,85.70
2023-05-17T22:38:25.798Z,86.02
2023-05-17T22:40:54.911Z,86.65
2023-05-17T22:43:23.165Z,86.94
2023-05-17T22:45:51.345Z,87.28
2023-05-17T22:48:20.209Z,87.21
2023-05-17T22:50:48.495Z,86.87
2023-05-17T22:53:18.705Z,86.95
2023-05-17T22:55:49.013Z,86.69
2023-05-17T22:58:17.823Z,86.35
2023-05-17T23:00:46.589Z,86.02
2023-05-17T23:03:14.908Z,85.87
2023-05-17T23:05:43.500Z,85.33
2023-05-17T23:08:15.735Z,85.48
2023-05-17T23:10:46.905Z,85.41
2023-05-17T23:13:15.429Z,85.30
2023-05-17T23:15:46.919Z,85.33
2023-05-17T23:18:16.283Z,85.16
2023-05-17T23:20:46.447Z,85.12
2023-05-17T23:23:15.660Z,85.42
2023-05-17T23:25:48.728Z,85.39
2023-05-17T23:28:18.388Z,85.14
2023-05-17T23:30:48.982Z,85.01
2023-05-17T23:33:21.433Z,83.95
2023-05-17T23:35:49.532Z,84.05
2023-05-17T23:38:17.630Z,84.11
2023-05-17T23:40:46.028Z,83.62
2023-05-17T23:43:14.886Z,82.89
2023-05-17T23:45:43.076Z,83.37
2023-05-17T23:48:11.207Z,83.11
2023-05-17T23:50:39.331Z,83.21
2023-05-17T23:53:10.083Z,83.19
2023-05-17T23:55:38.819Z,83.16
2023-05-17T23:58:07.070Z,82.81
